21.9°F
Current conditions from King Hill
Updated every 5 minutes
 
  Sunday December 21, 2014

Station Historical Data
Daily Summary for May 8, 2012 Units:  English    Metric   Both
« Previous Day
Next Day »
Daily Weekly Monthly Yearly Custom
  High: Low: Average:
Temperature: 60.1 °F 49.5 °F 53.4 °F
Dew Point: 53.2 °F 39.0 °F 49.2 °F
Humidity: 96% 49% 86%
Wind Speed: 13.0mph 1.0mph 4.7mph
Wind Gust: 29.0mph - -
Wind- - SSW
Pressure: 29.91 in 29.72 in -
Precipitation: 1.40 in    
Historical Graphs
 
 
Tabular Data for May 8, 2012
Time Temperature Dew Point Pressure Wind Wind Speed Wind Gust Humidity Daily Rainfall
00:00 58.0 °F 39.0 °F 29.91 in SSW 3.0 mph 9.0 mph 49% 0.00 in
00:10 58.8 °F 40.2 °F 29.90 in SSW 1.0 mph 8.0 mph 50% 0.00 in
00:15 58.9 °F 40.8 °F 29.90 in South 1.0 mph 8.0 mph 51% 0.00 in
00:20 59.0 °F 41.4 °F 29.90 in SSW 2.0 mph 8.0 mph 52% 0.00 in
00:25 58.9 °F 43.2 °F 29.90 in SW 3.0 mph 8.0 mph 56% 0.00 in
00:30 59.0 °F 44.3 °F 29.90 in SSW 2.0 mph 8.0 mph 58% 0.00 in
00:35 59.3 °F 45.9 °F 29.90 in SSW 6.0 mph 14.0 mph 61% 0.00 in
00:40 59.7 °F 46.7 °F 29.90 in SSW 7.0 mph 17.0 mph 62% 0.00 in
00:45 60.0 °F 47.0 °F 29.90 in SSW 4.0 mph 17.0 mph 62% 0.00 in
00:50 60.1 °F 47.0 °F 29.90 in SW 5.0 mph 13.0 mph 62% 0.00 in
00:55 60.0 °F 47.0 °F 29.90 in SSW 4.0 mph 17.0 mph 62% 0.00 in
01:00 60.1 °F 47.0 °F 29.90 in SSW 6.0 mph 17.0 mph 62% 0.00 in
01:05 60.0 °F 47.0 °F 29.90 in SW 3.0 mph 13.0 mph 62% 0.00 in
01:10 60.1 °F 47.0 °F 29.90 in SW 7.0 mph 14.0 mph 62% 0.00 in
01:15 60.1 °F 47.0 °F 29.90 in SSW 3.0 mph 14.0 mph 62% 0.00 in
01:20 60.0 °F 47.0 °F 29.90 in South 4.0 mph 12.0 mph 62% 0.00 in
01:25 59.9 °F 46.9 °F 29.89 in SSW 5.0 mph 12.0 mph 62% 0.00 in
01:30 59.8 °F 47.2 °F 29.89 in SSW 7.0 mph 14.0 mph 63% 0.00 in
01:35 59.8 °F 47.6 °F 29.89 in SW 5.0 mph 14.0 mph 64% 0.00 in
01:40 59.8 °F 47.6 °F 29.89 in SSW 4.0 mph 15.0 mph 64% 0.00 in
01:45 59.7 °F 47.9 °F 29.89 in SSW 6.0 mph 19.0 mph 65% 0.00 in
01:50 59.7 °F 48.3 °F 29.89 in SSW 8.0 mph 22.0 mph 66% 0.00 in
01:55 59.7 °F 48.3 °F 29.89 in SSW 7.0 mph 22.0 mph 66% 0.00 in
02:00 59.6 °F 48.2 °F 29.88 in South 6.0 mph 18.0 mph 66% 0.00 in
02:05 59.5 °F 48.5 °F 29.88 in SW 6.0 mph 16.0 mph 67% 0.00 in
02:10 59.4 °F 48.4 °F 29.88 in SW 8.0 mph 19.0 mph 67% 0.00 in
02:15 59.3 °F 48.7 °F 29.88 in SW 9.0 mph 19.0 mph 68% 0.00 in
02:20 59.0 °F 48.5 °F 29.88 in SSW 6.0 mph 19.0 mph 68% 0.00 in
02:25 59.0 °F 48.5 °F 29.88 in SSW 5.0 mph 19.0 mph 68% 0.00 in
02:35 59.0 °F 48.9 °F 29.87 in SSW 5.0 mph 22.0 mph 69% 0.00 in
02:45 59.0 °F 48.9 °F 29.87 in SSW 4.0 mph 18.0 mph 69% 0.00 in
02:50 58.7 °F 49.0 °F 29.87 in South 2.0 mph 13.0 mph 70% 0.00 in
02:55 58.4 °F 49.0 °F 29.86 in South 3.0 mph 13.0 mph 71% 0.00 in
03:00 58.2 °F 49.2 °F 29.86 in SSW 2.0 mph 13.0 mph 72% 0.00 in
03:05 58.1 °F 49.1 °F 29.86 in SSW 3.0 mph 14.0 mph 72% 0.00 in
03:10 58.0 °F 49.0 °F 29.86 in SSW 2.0 mph 14.0 mph 72% 0.00 in
03:20 57.6 °F 49.0 °F 29.85 in SW 1.0 mph 11.0 mph 73% 0.00 in
03:25 57.5 °F 49.3 °F 29.85 in SSW 1.0 mph 10.0 mph 74% 0.00 in
03:30 57.3 °F 49.5 °F 29.85 in SSW 2.0 mph 13.0 mph 75% 0.00 in
03:40 56.9 °F 49.4 °F 29.85 in South 1.0 mph 9.0 mph 76% 0.00 in
03:45 56.6 °F 49.8 °F 29.85 in SSW 2.0 mph 10.0 mph 78% 0.00 in
03:50 56.4 °F 49.6 °F 29.85 in SSW 3.0 mph 10.0 mph 78% 0.00 in
03:55 56.1 °F 49.7 °F 29.84 in SSW 3.0 mph 8.0 mph 79% 0.00 in
04:00 55.9 °F 49.8 °F 29.84 in SW 2.0 mph 11.0 mph 80% 0.00 in
04:05 55.7 °F 50.0 °F 29.84 in SSW 3.0 mph 11.0 mph 81% 0.00 in
04:10 55.6 °F 49.9 °F 29.84 in SW 1.0 mph 10.0 mph 81% 0.00 in
04:15 55.4 °F 50.0 °F 29.83 in SW 3.0 mph 10.0 mph 82% 0.00 in
04:20 55.3 °F 49.9 °F 29.83 in SW 3.0 mph 10.0 mph 82% 0.00 in
04:25 55.1 °F 50.0 °F 29.83 in SW 2.0 mph 10.0 mph 83% 0.00 in
04:30 55.0 °F 50.3 °F 29.83 in SW 2.0 mph 11.0 mph 84% 0.00 in
04:35 54.9 °F 50.2 °F 29.84 in SW 4.0 mph 14.0 mph 84% 0.00 in
04:40 54.8 °F 50.1 °F 29.84 in SW 5.0 mph 14.0 mph 84% 0.01 in
04:45 54.7 °F 50.3 °F 29.84 in SW 6.0 mph 15.0 mph 85% 0.01 in
04:50 54.5 °F 50.1 °F 29.83 in SW 2.0 mph 15.0 mph 85% 0.01 in
05:00 54.2 °F 50.4 °F 29.84 in SSW 5.0 mph 15.0 mph 87% 0.02 in
05:05 54.1 °F 50.3 °F 29.83 in SW 6.0 mph 15.0 mph 87% 0.02 in
05:10 53.9 °F 50.1 °F 29.84 in SW 10.0 mph 18.0 mph 87% 0.02 in
05:15 53.9 °F 50.1 °F 29.84 in SSW 8.0 mph 18.0 mph 87% 0.02 in
05:20 53.8 °F 50.0 °F 29.83 in SSW 7.0 mph 17.0 mph 87% 0.03 in
05:25 53.7 °F 49.9 °F 29.83 in SSW 8.0 mph 16.0 mph 87% 0.03 in
05:35 53.6 °F 49.8 °F 29.83 in SSW 10.0 mph 25.0 mph 87% 0.03 in
05:45 53.4 °F 49.6 °F 29.83 in SW 5.0 mph 17.0 mph 87% 0.03 in
05:50 53.5 °F 49.4 °F 29.83 in SSW 8.0 mph 18.0 mph 86% 0.03 in
06:00 53.4 °F 49.3 °F 29.83 in SSW 3.0 mph 14.0 mph 86% 0.04 in
06:05 53.4 °F 49.3 °F 29.83 in SSW 6.0 mph 19.0 mph 86% 0.04 in
06:10 53.3 °F 48.9 °F 29.82 in SSW 8.0 mph 27.0 mph 85% 0.04 in
06:15 53.3 °F 48.9 °F 29.82 in South 11.0 mph 27.0 mph 85% 0.04 in
06:20 53.3 °F 48.6 °F 29.82 in SSW 6.0 mph 25.0 mph 84% 0.04 in
06:25 53.2 °F 48.5 °F 29.81 in SSW 7.0 mph 20.0 mph 84% 0.04 in
06:30 53.2 °F 48.2 °F 29.81 in SSW 8.0 mph 22.0 mph 83% 0.04 in
06:35 53.2 °F 48.2 °F 29.82 in SSW 9.0 mph 22.0 mph 83% 0.04 in
06:40 53.3 °F 48.0 °F 29.82 in SW 13.0 mph 22.0 mph 82% 0.04 in
06:55 53.2 °F 47.5 °F 29.82 in SSW 12.0 mph 29.0 mph 81% 0.04 in
07:00 52.9 °F 47.6 °F 29.82 in SSW 9.0 mph 29.0 mph 82% 0.04 in
07:05 52.7 °F 47.7 °F 29.82 in SSW 8.0 mph 22.0 mph 83% 0.04 in
07:10 52.5 °F 47.5 °F 29.82 in SSW 13.0 mph 24.0 mph 83% 0.04 in
07:15 52.4 °F 47.7 °F 29.82 in SSW 5.0 mph 24.0 mph 84% 0.04 in
07:25 52.0 °F 47.6 °F 29.82 in SSW 6.0 mph 26.0 mph 85% 0.05 in
07:30 51.8 °F 47.7 °F 29.81 in SSW 6.0 mph 19.0 mph 86% 0.06 in
07:35 51.7 °F 47.7 °F 29.82 in SW 5.0 mph 21.0 mph 86% 0.06 in
07:45 51.5 °F 47.8 °F 29.82 in SW 8.0 mph 17.0 mph 87% 0.07 in
07:50 51.4 °F 47.7 °F 29.81 in SSW 7.0 mph 16.0 mph 87% 0.07 in
08:00 51.3 °F 47.9 °F 29.81 in SSW 5.0 mph 17.0 mph 88% 0.08 in
08:05 51.2 °F 47.8 °F 29.81 in SSW 7.0 mph 17.0 mph 88% 0.08 in
08:15 51.0 °F 47.6 °F 29.81 in SW 6.0 mph 16.0 mph 88% 0.09 in
08:25 50.8 °F 47.7 °F 29.81 in SSW 4.0 mph 19.0 mph 89% 0.10 in
08:30 50.8 °F 47.7 °F 29.81 in SSW 10.0 mph 19.0 mph 89% 0.12 in
08:40 50.4 °F 47.3 °F 29.80 in SW 6.0 mph 24.0 mph 89% 0.13 in
08:45 50.3 °F 47.2 °F 29.80 in SSW 9.0 mph 17.0 mph 89% 0.14 in
08:55 50.1 °F 47.0 °F 29.80 in SSW 6.0 mph 21.0 mph 89% 0.15 in
09:05 49.9 °F 46.8 °F 29.79 in SSW 10.0 mph 22.0 mph 89% 0.16 in
09:10 49.7 °F 46.3 °F 29.79 in SSW 11.0 mph 21.0 mph 88% 0.17 in
09:15 49.6 °F 46.2 °F 29.79 in SSW 10.0 mph 21.0 mph 88% 0.19 in
09:20 49.6 °F 46.2 °F 29.79 in SSW 9.0 mph 18.0 mph 88% 0.19 in
09:25 49.5 °F 46.4 °F 29.79 in SSW 8.0 mph 23.0 mph 89% 0.21 in
09:35 49.5 °F 46.4 °F 29.78 in SSW 8.0 mph 23.0 mph 89% 0.24 in
09:40 49.6 °F 46.5 °F 29.79 in SSW 9.0 mph 23.0 mph 89% 0.24 in
09:50 49.7 °F 46.6 °F 29.78 in SSW 9.0 mph 23.0 mph 89% 0.26 in
09:55 49.6 °F 47.4 °F 29.78 in SSW 8.0 mph 23.0 mph 92% 0.26 in
10:00 49.6 °F 47.4 °F 29.78 in SSW 7.0 mph 23.0 mph 92% 0.27 in
10:05 49.7 °F 46.6 °F 29.78 in SSW 8.0 mph 23.0 mph 89% 0.28 in
10:10 49.6 °F 46.2 °F 29.78 in SSW 9.0 mph 23.0 mph 88% 0.28 in
10:15 49.5 °F 46.1 °F 29.79 in SSW 12.0 mph 27.0 mph 88% 0.29 in
10:25 49.6 °F 46.2 °F 29.78 in SSW 10.0 mph 21.0 mph 88% 0.31 in
10:30 49.7 °F 46.6 °F 29.78 in SSW 7.0 mph 21.0 mph 89% 0.31 in
10:35 49.7 °F 46.6 °F 29.78 in SW 8.0 mph 18.0 mph 89% 0.32 in
10:45 49.9 °F 46.8 °F 29.77 in SSW 9.0 mph 25.0 mph 89% 0.33 in
10:55 50.0 °F 46.9 °F 29.77 in SSW 7.0 mph 19.0 mph 89% 0.34 in
11:00 50.0 °F 46.9 °F 29.77 in SSW 10.0 mph 20.0 mph 89% 0.36 in
11:05 50.0 °F 46.9 °F 29.77 in SSW 10.0 mph 20.0 mph 89% 0.37 in
11:15 50.2 °F 47.1 °F 29.77 in SSW 7.0 mph 19.0 mph 89% 0.40 in
11:20 50.2 °F 47.1 °F 29.77 in SSW 7.0 mph 19.0 mph 89% 0.41 in
11:25 50.0 °F 46.9 °F 29.76 in SSW 11.0 mph 23.0 mph 89% 0.42 in
11:30 50.1 °F 47.0 °F 29.76 in SSW 8.0 mph 23.0 mph 89% 0.45 in
11:35 50.0 °F 46.9 °F 29.76 in SSW 10.0 mph 19.0 mph 89% 0.47 in
11:45 50.0 °F 46.9 °F 29.76 in SSW 6.0 mph 19.0 mph 89% 0.51 in
11:50 50.0 °F 47.2 °F 29.76 in SSW 9.0 mph 18.0 mph 90% 0.52 in
11:55 50.1 °F 47.3 °F 29.76 in SSW 8.0 mph 19.0 mph 90% 0.54 in
12:05 50.3 °F 47.5 °F 29.76 in SSW 8.0 mph 19.0 mph 90% 0.56 in
12:10 50.5 °F 48.0 °F 29.76 in SSW 6.0 mph 19.0 mph 91% 0.56 in
12:15 50.5 °F 48.0 °F 29.76 in SSW 4.0 mph 17.0 mph 91% 0.58 in
12:25 50.6 °F 48.1 °F 29.75 in SSW 6.0 mph 18.0 mph 91% 0.59 in
12:40 50.6 °F 48.1 °F 29.75 in SSW 8.0 mph 18.0 mph 91% 0.62 in
12:45 50.6 °F 48.1 °F 29.75 in SSW 9.0 mph 22.0 mph 91% 0.65 in
12:50 50.6 °F 48.1 °F 29.75 in SSW 7.0 mph 22.0 mph 91% 0.67 in
12:55 50.6 °F 48.1 °F 29.75 in SSW 10.0 mph 22.0 mph 91% 0.69 in
13:00 50.5 °F 48.0 °F 29.75 in SSW 8.0 mph 22.0 mph 91% 0.71 in
13:05 50.6 °F 48.1 °F 29.75 in SSW 6.0 mph 17.0 mph 91% 0.73 in
13:15 50.5 °F 48.0 °F 29.75 in SSW 7.0 mph 19.0 mph 91% 0.78 in
13:25 50.5 °F 48.0 °F 29.75 in SSW 5.0 mph 17.0 mph 91% 0.82 in
13:35 50.6 °F 48.1 °F 29.75 in SSW 5.0 mph 12.0 mph 91% 0.86 in
13:40 50.6 °F 48.4 °F 29.76 in SSW 4.0 mph 11.0 mph 92% 0.88 in
13:45 50.5 °F 48.3 °F 29.76 in SSW 5.0 mph 15.0 mph 92% 0.90 in
13:50 50.6 °F 48.4 °F 29.76 in SSW 1.0 mph 15.0 mph 92% 0.92 in
14:00 50.6 °F 48.4 °F 29.76 in South 3.0 mph 11.0 mph 92% 0.96 in
14:05 50.7 °F 48.5 °F 29.76 in South 3.0 mph 12.0 mph 92% 0.98 in
14:10 50.7 °F 48.5 °F 29.75 in SSW 5.0 mph 12.0 mph 92% 1.00 in
14:15 50.6 °F 48.4 °F 29.76 in SSW 5.0 mph 14.0 mph 92% 1.02 in
14:20 50.7 °F 48.5 °F 29.76 in SSW 2.0 mph 14.0 mph 92% 1.04 in
14:25 50.7 °F 48.8 °F 29.75 in SSW 2.0 mph 13.0 mph 93% 1.05 in
14:30 50.7 °F 48.8 °F 29.75 in South 4.0 mph 13.0 mph 93% 1.06 in
14:35 50.8 °F 48.9 °F 29.75 in SSW 2.0 mph 12.0 mph 93% 1.08 in
14:40 50.8 °F 48.9 °F 29.75 in South 3.0 mph 14.0 mph 93% 1.10 in
14:50 50.8 °F 48.9 °F 29.75 in Calm   9.0 mph 93% 1.12 in
14:55 50.8 °F 48.9 °F 29.75 in SSW 3.0 mph 9.0 mph 93% 1.14 in
15:00 50.9 °F 48.9 °F 29.75 in SSW 3.0 mph 9.0 mph 93% 1.16 in
15:10 51.0 °F 49.0 °F 29.74 in SW 2.0 mph 11.0 mph 93% 1.17 in
15:20 51.0 °F 49.0 °F 29.74 in SSW 5.0 mph 13.0 mph 93% 1.20 in
15:25 51.0 °F 49.0 °F 29.74 in SSW 2.0 mph 13.0 mph 93% 1.20 in
15:30 51.2 °F 49.5 °F 29.74 in SSW 1.0 mph 13.0 mph 94% 1.22 in
15:35 51.3 °F 49.6 °F 29.74 in SSW 1.0 mph 13.0 mph 94% 1.23 in
15:40 51.3 °F 49.6 °F 29.74 in SSW 2.0 mph 11.0 mph 94% 1.24 in
15:50 51.3 °F 49.6 °F 29.74 in SW 3.0 mph 15.0 mph 94% 1.26 in
15:55 51.3 °F 49.6 °F 29.74 in South 1.0 mph 10.0 mph 94% 1.27 in
16:00 51.4 °F 49.7 °F 29.74 in SSW 3.0 mph 11.0 mph 94% 1.28 in
16:05 51.4 °F 49.7 °F 29.74 in SSW 2.0 mph 11.0 mph 94% 1.28 in
16:15 51.5 °F 49.8 °F 29.74 in SW 2.0 mph 13.0 mph 94% 1.30 in
16:25 51.5 °F 49.8 °F 29.74 in SSW 1.0 mph 12.0 mph 94% 1.32 in
16:30 51.6 °F 49.9 °F 29.74 in SSW 2.0 mph 12.0 mph 94% 1.32 in
16:40 51.6 °F 49.9 °F 29.74 in SW 1.0 mph 10.0 mph 94% 1.34 in
16:45 51.7 °F 50.0 °F 29.74 in SSW 1.0 mph 10.0 mph 94% 1.34 in
16:50 51.9 °F 50.5 °F 29.74 in SSW 2.0 mph 10.0 mph 95% 1.35 in
17:00 52.1 °F 50.7 °F 29.73 in SSW 1.0 mph 9.0 mph 95% 1.36 in
17:05 52.2 °F 50.8 °F 29.73 in South 3.0 mph 10.0 mph 95% 1.36 in
17:15 52.3 °F 50.9 °F 29.73 in SSW 1.0 mph 12.0 mph 95% 1.37 in
17:25 52.3 °F 50.9 °F 29.73 in SSW 2.0 mph 10.0 mph 95% 1.37 in
17:30 52.4 °F 51.0 °F 29.73 in SSW 1.0 mph 10.0 mph 95% 1.37 in
17:35 52.3 °F 50.9 °F 29.73 in SSW 3.0 mph 12.0 mph 95% 1.37 in
17:40 52.3 °F 50.9 °F 29.72 in SW 2.0 mph 12.0 mph 95% 1.37 in
17:50 52.4 °F 51.0 °F 29.72 in SSW 2.0 mph 11.0 mph 95% 1.37 in
17:55 52.4 °F 51.0 °F 29.72 in Calm   11.0 mph 95% 1.38 in
18:00 52.4 °F 51.0 °F 29.73 in SSW 2.0 mph 9.0 mph 95% 1.38 in
18:05 52.5 °F 51.1 °F 29.73 in SSW 2.0 mph 9.0 mph 95% 1.38 in
18:10 52.5 °F 51.1 °F 29.73 in SSW 2.0 mph 9.0 mph 95% 1.38 in
18:15 52.5 °F 51.1 °F 29.72 in Calm   9.0 mph 95% 1.38 in
18:20 52.5 °F 51.1 °F 29.72 in SSW 2.0 mph 9.0 mph 95% 1.38 in
18:25 52.6 °F 51.2 °F 29.72 in SSW 3.0 mph 11.0 mph 95% 1.38 in
18:30 52.6 °F 51.2 °F 29.72 in Calm   11.0 mph 95% 1.38 in
18:40 52.7 °F 51.3 °F 29.72 in Calm   10.0 mph 95% 1.39 in
18:45 52.7 °F 51.3 °F 29.72 in South 1.0 mph 9.0 mph 95% 1.40 in
18:55 52.8 °F 51.4 °F 29.72 in SSW 1.0 mph 9.0 mph 95% 1.40 in
19:05 52.8 °F 51.4 °F 29.72 in SSW 1.0 mph 9.0 mph 95% 1.40 in
19:10 52.8 °F 51.4 °F 29.72 in SW 2.0 mph 10.0 mph 95% 1.40 in
19:15 52.8 °F 51.4 °F 29.72 in Calm   10.0 mph 95% 1.40 in
19:20 52.9 °F 51.5 °F 29.72 in SW 1.0 mph 8.0 mph 95% 1.40 in
19:25 52.9 °F 51.5 °F 29.73 in SSW 2.0 mph 10.0 mph 95% 1.40 in
19:35 52.9 °F 51.5 °F 29.73 in Calm   13.0 mph 95% 1.40 in
19:45 53.0 °F 51.6 °F 29.72 in SSW 1.0 mph 7.0 mph 95% 1.40 in
19:55 53.0 °F 51.6 °F 29.72 in SSW 3.0 mph 8.0 mph 95% 1.40 in
20:00 53.0 °F 51.6 °F 29.72 in Calm   8.0 mph 95% 1.40 in
20:05 53.0 °F 51.6 °F 29.73 in Calm   7.0 mph 95% 1.40 in
20:10 53.0 °F 51.6 °F 29.73 in Calm   6.0 mph 95% 1.40 in
20:15 53.1 °F 51.7 °F 29.73 in South 1.0 mph 7.0 mph 95% 1.40 in
20:20 53.1 °F 51.7 °F 29.73 in SSW 1.0 mph 7.0 mph 95% 1.40 in
20:25 53.1 °F 51.7 °F 29.73 in Calm   7.0 mph 95% 1.40 in
20:30 53.1 °F 51.7 °F 29.73 in Calm   7.0 mph 95% 1.40 in
20:35 53.2 °F 51.8 °F 29.72 in SSW 2.0 mph 7.0 mph 95% 1.40 in
20:40 53.2 °F 51.8 °F 29.73 in SSW 1.0 mph 7.0 mph 95% 1.40 in
20:50 53.2 °F 51.8 °F 29.73 in SW 2.0 mph 8.0 mph 95% 1.40 in
20:55 53.3 °F 51.9 °F 29.74 in Calm   8.0 mph 95% 1.40 in
21:05 53.3 °F 51.9 °F 29.74 in Calm   7.0 mph 95% 1.40 in
21:10 53.3 °F 51.9 °F 29.74 in Calm   7.0 mph 95% 1.40 in
21:15 53.3 °F 52.2 °F 29.74 in SSW 2.0 mph 10.0 mph 96% 1.40 in
21:20 53.4 °F 52.3 °F 29.74 in SSW 1.0 mph 10.0 mph 96% 1.40 in
21:25 53.4 °F 52.3 °F 29.74 in SSW 2.0 mph 9.0 mph 96% 1.40 in
21:30 53.5 °F 52.4 °F 29.74 in SSW 2.0 mph 8.0 mph 96% 1.40 in
21:35 53.5 °F 52.4 °F 29.74 in SSW 1.0 mph 8.0 mph 96% 1.40 in
21:45 53.5 °F 52.4 °F 29.74 in Calm   8.0 mph 96% 1.40 in
21:50 53.5 °F 52.4 °F 29.73 in SSW 1.0 mph 8.0 mph 96% 1.40 in
21:55 53.6 °F 52.5 °F 29.73 in SSW 2.0 mph 7.0 mph 96% 1.40 in
22:05 53.6 °F 52.5 °F 29.73 in SSW 1.0 mph 7.0 mph 96% 1.40 in
22:10 53.7 °F 52.6 °F 29.73 in SSW 2.0 mph 7.0 mph 96% 1.40 in
22:15 53.8 °F 52.7 °F 29.73 in Calm   7.0 mph 96% 1.40 in
22:25 53.9 °F 52.8 °F 29.73 in Calm   6.0 mph 96% 1.40 in
22:30 53.9 °F 52.8 °F 29.73 in SSW 1.0 mph 7.0 mph 96% 1.40 in
22:35 54.0 °F 52.9 °F 29.73 in SSW 2.0 mph 8.0 mph 96% 1.40 in
22:40 54.0 °F 52.9 °F 29.73 in SW 1.0 mph 8.0 mph 96% 1.40 in
22:50 54.1 °F 53.0 °F 29.73 in Calm   5.0 mph 96% 1.40 in
22:55 54.1 °F 53.0 °F 29.73 in SW 1.0 mph 7.0 mph 96% 1.40 in
23:05 54.2 °F 53.1 °F 29.74 in SW 3.0 mph 7.0 mph 96% 1.40 in
23:10 54.3 °F 53.2 °F 29.73 in SSW 1.0 mph 8.0 mph 96% 1.40 in
23:20 54.2 °F 53.1 °F 29.72 in Calm   6.0 mph 96% 1.40 in
23:25 54.2 °F 53.1 °F 29.73 in SSW 1.0 mph 6.0 mph 96% 1.40 in
23:30 54.2 °F 53.1 °F 29.73 in Calm   6.0 mph 96% 1.40 in
23:35 54.2 °F 53.1 °F 29.73 in Calm   7.0 mph 96% 1.40 in
23:40 54.2 °F 53.1 °F 29.72 in SSW 1.0 mph 7.0 mph 96% 1.40 in
23:45 54.3 °F 53.2 °F 29.72 in SW 1.0 mph 7.0 mph 96% 1.40 in
23:55 54.3 °F 53.2 °F 29.73 in Calm   7.0 mph 96% 1.40 in
Westford Weather
Compliments of Weather Underground

 
 
Current Radar Loop:

Copyright © WestfordWeather.net 2007-2014. All rights reserved.